sensor_id;sensor_type;location;lat;lon;timestamp;P1;durP1;ratioP1;P2;durP2;ratioP2
20095;SDS011;10207;50.942;6.900;2023-07-30T00:01:34;7.95;;;4.60;;
20095;SDS011;10207;50.942;6.900;2023-07-30T00:04:00;6.15;;;4.63;;
20095;SDS011;10207;50.942;6.900;2023-07-30T00:06:26;8.10;;;4.50;;
20095;SDS011;10207;50.942;6.900;2023-07-30T00:08:52;10.48;;;5.28;;
20095;SDS011;10207;50.942;6.900;2023-07-30T00:11:18;7.15;;;4.85;;
20095;SDS011;10207;50.942;6.900;2023-07-30T00:13:44;6.40;;;5.25;;
20095;SDS011;10207;50.942;6.900;2023-07-30T00:16:10;10.23;;;5.05;;
20095;SDS011;10207;50.942;6.900;2023-07-30T00:18:36;9.23;;;4.47;;
20095;SDS011;10207;50.942;6.900;2023-07-30T00:21:02;10.23;;;5.32;;
20095;SDS011;10207;50.942;6.900;2023-07-30T00:23:28;9.43;;;5.72;;
20095;SDS011;10207;50.942;6.900;2023-07-30T00:25:54;7.75;;;5.40;;
20095;SDS011;10207;50.942;6.900;2023-07-30T00:28:20;9.88;;;5.43;;
20095;SDS011;10207;50.942;6.900;2023-07-30T00:30:46;7.90;;;5.07;;
20095;SDS011;10207;50.942;6.900;2023-07-30T00:33:12;7.30;;;5.18;;
20095;SDS011;10207;50.942;6.900;2023-07-30T00:35:38;12.82;;;6.25;;
20095;SDS011;10207;50.942;6.900;2023-07-30T00:38:04;10.32;;;5.88;;
20095;SDS011;10207;50.942;6.900;2023-07-30T00:40:29;13.82;;;5.95;;
20095;SDS011;10207;50.942;6.900;2023-07-30T00:42:55;12.27;;;6.35;;
20095;SDS011;10207;50.942;6.900;2023-07-30T00:45:21;8.88;;;4.85;;
20095;SDS011;10207;50.942;6.900;2023-07-30T00:47:48;10.43;;;5.18;;
20095;SDS011;10207;50.942;6.900;2023-07-30T00:50:14;11.55;;;5.82;;
20095;SDS011;10207;50.942;6.900;2023-07-30T00:52:41;14.73;;;5.88;;
20095;SDS011;10207;50.942;6.900;2023-07-30T00:55:08;12.98;;;5.90;;
20095;SDS011;10207;50.942;6.900;2023-07-30T00:57:35;11.93;;;5.70;;
20095;SDS011;10207;50.942;6.900;2023-07-30T01:00:01;10.40;;;5.40;;
20095;SDS011;10207;50.942;6.900;2023-07-30T01:02:31;7.20;;;5.05;;
20095;SDS011;10207;50.942;6.900;2023-07-30T01:04:57;10.02;;;5.88;;
20095;SDS011;10207;50.942;6.900;2023-07-30T01:07:23;11.63;;;5.40;;
20095;SDS011;10207;50.942;6.900;2023-07-30T01:09:49;12.15;;;5.45;;
20095;SDS011;10207;50.942;6.900;2023-07-30T01:12:15;11.02;;;5.65;;
20095;SDS011;10207;50.942;6.900;2023-07-30T01:14:41;10.07;;;4.93;;
20095;SDS011;10207;50.942;6.900;2023-07-30T01:17:09;7.40;;;5.03;;
20095;SDS011;10207;50.942;6.900;2023-07-30T01:19:35;13.00;;;4.30;;
20095;SDS011;10207;50.942;6.900;2023-07-30T01:22:01;7.88;;;4.75;;
20095;SDS011;10207;50.942;6.900;2023-07-30T01:24:27;8.98;;;4.00;;
20095;SDS011;10207;50.942;6.900;2023-07-30T01:27:01;5.18;;;3.67;;
20095;SDS011;10207;50.942;6.900;2023-07-30T01:29:29;6.30;;;4.82;;
20095;SDS011;10207;50.942;6.900;2023-07-30T01:32:00;6.25;;;3.35;;
20095;SDS011;10207;50.942;6.900;2023-07-30T01:34:28;5.85;;;2.80;;
20095;SDS011;10207;50.942;6.900;2023-07-30T01:36:55;8.80;;;3.08;;
20095;SDS011;10207;50.942;6.900;2023-07-30T01:39:22;5.05;;;2.78;;
20095;SDS011;10207;50.942;6.900;2023-07-30T01:41:48;4.13;;;2.47;;
20095;SDS011;10207;50.942;6.900;2023-07-30T01:44:14;4.10;;;2.55;;
20095;SDS011;10207;50.942;6.900;2023-07-30T01:46:41;6.50;;;2.58;;
20095;SDS011;10207;50.942;6.900;2023-07-30T01:49:07;7.53;;;3.45;;
20095;SDS011;10207;50.942;6.900;2023-07-30T01:51:33;2.97;;;2.00;;
20095;SDS011;10207;50.942;6.900;2023-07-30T01:53:59;7.88;;;3.58;;
20095;SDS011;10207;50.942;6.900;2023-07-30T01:56:25;4.68;;;2.63;;
20095;SDS011;10207;50.942;6.900;2023-07-30T01:58:51;7.07;;;2.30;;
20095;SDS011;10207;50.942;6.900;2023-07-30T02:01:17;4.68;;;2.40;;
20095;SDS011;10207;50.942;6.900;2023-07-30T02:03:42;4.22;;;2.20;;
20095;SDS011;10207;50.942;6.900;2023-07-30T02:06:08;9.45;;;2.60;;
20095;SDS011;10207;50.942;6.900;2023-07-30T02:08:34;3.95;;;2.28;;
20095;SDS011;10207;50.942;6.900;2023-07-30T02:11:00;6.45;;;2.28;;
20095;SDS011;10207;50.942;6.900;2023-07-30T02:13:26;8.00;;;2.13;;
20095;SDS011;10207;50.942;6.900;2023-07-30T02:15:52;10.00;;;2.47;;
20095;SDS011;10207;50.942;6.900;2023-07-30T02:18:18;3.08;;;1.80;;
20095;SDS011;10207;50.942;6.900;2023-07-30T02:20:44;6.95;;;2.50;;
20095;SDS011;10207;50.942;6.900;2023-07-30T02:23:10;3.20;;;2.25;;
20095;SDS011;10207;50.942;6.900;2023-07-30T02:25:37;8.52;;;2.53;;
20095;SDS011;10207;50.942;6.900;2023-07-30T02:28:03;6.13;;;2.45;;
20095;SDS011;10207;50.942;6.900;2023-07-30T02:30:29;5.75;;;2.30;;
20095;SDS011;10207;50.942;6.900;2023-07-30T02:32:55;6.10;;;1.88;;
20095;SDS011;10207;50.942;6.900;2023-07-30T02:35:21;8.15;;;2.28;;
20095;SDS011;10207;50.942;6.900;2023-07-30T02:37:47;5.07;;;1.98;;
20095;SDS011;10207;50.942;6.900;2023-07-30T02:40:14;8.98;;;2.00;;
20095;SDS011;10207;50.942;6.900;2023-07-30T02:42:40;6.55;;;2.00;;
20095;SDS011;10207;50.942;6.900;2023-07-30T02:45:06;3.92;;;2.03;;
20095;SDS011;10207;50.942;6.900;2023-07-30T02:47:32;7.28;;;2.30;;
20095;SDS011;10207;50.942;6.900;2023-07-30T02:49:58;6.68;;;2.10;;
20095;SDS011;10207;50.942;6.900;2023-07-30T02:52:24;7.40;;;2.67;;
20095;SDS011;10207;50.942;6.900;2023-07-30T02:54:50;4.95;;;2.15;;
20095;SDS011;10207;50.942;6.900;2023-07-30T02:57:16;8.23;;;2.58;;
20095;SDS011;10207;50.942;6.900;2023-07-30T02:59:41;7.28;;;2.35;;
20095;SDS011;10207;50.942;6.900;2023-07-30T03:02:07;4.18;;;1.80;;
20095;SDS011;10207;50.942;6.900;2023-07-30T03:04:33;9.85;;;2.25;;
20095;SDS011;10207;50.942;6.900;2023-07-30T03:06:59;6.95;;;2.50;;
20095;SDS011;10207;50.942;6.900;2023-07-30T03:09:26;7.80;;;1.70;;
20095;SDS011;10207;50.942;6.900;2023-07-30T03:11:53;5.63;;;2.63;;
20095;SDS011;10207;50.942;6.900;2023-07-30T03:14:19;4.68;;;2.05;;
20095;SDS011;10207;50.942;6.900;2023-07-30T03:16:46;6.28;;;2.17;;
20095;SDS011;10207;50.942;6.900;2023-07-30T03:19:12;6.25;;;2.53;;
20095;SDS011;10207;50.942;6.900;2023-07-30T03:21:38;7.05;;;2.03;;
20095;SDS011;10207;50.942;6.900;2023-07-30T03:24:04;4.15;;;2.15;;
20095;SDS011;10207;50.942;6.900;2023-07-30T03:26:30;6.55;;;2.53;;
20095;SDS011;10207;50.942;6.900;2023-07-30T03:28:56;4.32;;;2.60;;
20095;SDS011;10207;50.942;6.900;2023-07-30T03:31:22;4.28;;;2.13;;
20095;SDS011;10207;50.942;6.900;2023-07-30T03:33:48;3.47;;;1.80;;
20095;SDS011;10207;50.942;6.900;2023-07-30T03:36:14;8.30;;;2.33;;
20095;SDS011;10207;50.942;6.900;2023-07-30T03:38:40;5.57;;;2.03;;
20095;SDS011;10207;50.942;6.900;2023-07-30T03:41:06;8.32;;;2.50;;
20095;SDS011;10207;50.942;6.900;2023-07-30T03:43:33;8.23;;;2.95;;
20095;SDS011;10207;50.942;6.900;2023-07-30T03:45:59;7.03;;;2.13;;
20095;SDS011;10207;50.942;6.900;2023-07-30T03:48:25;7.50;;;2.20;;
20095;SDS011;10207;50.942;6.900;2023-07-30T03:50:52;5.97;;;2.28;;
20095;SDS011;10207;50.942;6.900;2023-07-30T03:53:18;8.35;;;2.75;;
20095;SDS011;10207;50.942;6.900;2023-07-30T03:55:43;10.55;;;1.90;;
20095;SDS011;10207;50.942;6.900;2023-07-30T03:58:09;5.50;;;2.20;;
20095;SDS011;10207;50.942;6.900;2023-07-30T04:00:35;10.02;;;2.90;;
20095;SDS011;10207;50.942;6.900;2023-07-30T04:03:01;6.05;;;2.20;;
20095;SDS011;10207;50.942;6.900;2023-07-30T04:05:28;8.18;;;2.20;;
20095;SDS011;10207;50.942;6.900;2023-07-30T04:07:54;7.25;;;2.67;;
20095;SDS011;10207;50.942;6.900;2023-07-30T04:10:20;3.70;;;2.05;;
20095;SDS011;10207;50.942;6.900;2023-07-30T04:12:46;9.23;;;2.50;;
20095;SDS011;10207;50.942;6.900;2023-07-30T04:15:12;8.35;;;2.65;;
20095;SDS011;10207;50.942;6.900;2023-07-30T04:17:38;10.68;;;2.25;;
20095;SDS011;10207;50.942;6.900;2023-07-30T04:20:04;9.05;;;2.47;;
20095;SDS011;10207;50.942;6.900;2023-07-30T04:22:31;8.00;;;2.40;;
20095;SDS011;10207;50.942;6.900;2023-07-30T04:24:57;12.23;;;2.50;;
20095;SDS011;10207;50.942;6.900;2023-07-30T04:27:23;8.60;;;2.85;;
20095;SDS011;10207;50.942;6.900;2023-07-30T04:29:49;6.97;;;2.08;;
20095;SDS011;10207;50.942;6.900;2023-07-30T04:32:15;7.15;;;2.22;;
20095;SDS011;10207;50.942;6.900;2023-07-30T04:34:41;4.82;;;2.03;;
20095;SDS011;10207;50.942;6.900;2023-07-30T04:37:08;9.43;;;2.40;;
20095;SDS011;10207;50.942;6.900;2023-07-30T04:39:35;13.00;;;2.33;;
20095;SDS011;10207;50.942;6.900;2023-07-30T04:42:02;4.82;;;2.28;;
20095;SDS011;10207;50.942;6.900;2023-07-30T04:44:28;6.53;;;1.80;;
20095;SDS011;10207;50.942;6.900;2023-07-30T04:46:59;10.60;;;1.73;;
20095;SDS011;10207;50.942;6.900;2023-07-30T04:49:25;8.60;;;1.80;;
20095;SDS011;10207;50.942;6.900;2023-07-30T04:51:51;6.93;;;1.88;;
20095;SDS011;10207;50.942;6.900;2023-07-30T04:54:17;5.72;;;1.70;;
20095;SDS011;10207;50.942;6.900;2023-07-30T04:56:43;3.85;;;1.40;;
20095;SDS011;10207;50.942;6.900;2023-07-30T04:59:09;8.40;;;1.50;;
20095;SDS011;10207;50.942;6.900;2023-07-30T05:01:35;4.90;;;1.73;;
20095;SDS011;10207;50.942;6.900;2023-07-30T05:04:01;7.97;;;1.70;;
20095;SDS011;10207;50.942;6.900;2023-07-30T05:06:27;4.45;;;1.48;;
20095;SDS011;10207;50.942;6.900;2023-07-30T05:08:52;6.40;;;1.67;;
20095;SDS011;10207;50.942;6.900;2023-07-30T05:11:20;7.00;;;1.50;;
20095;SDS011;10207;50.942;6.900;2023-07-30T05:13:45;5.82;;;1.35;;
20095;SDS011;10207;50.942;6.900;2023-07-30T05:16:11;7.80;;;1.55;;
20095;SDS011;10207;50.942;6.900;2023-07-30T05:18:37;5.53;;;1.58;;
20095;SDS011;10207;50.942;6.900;2023-07-30T05:21:03;5.90;;;1.42;;
20095;SDS011;10207;50.942;6.900;2023-07-30T05:23:29;7.25;;;1.40;;
20095;SDS011;10207;50.942;6.900;2023-07-30T05:25:55;9.70;;;1.85;;
20095;SDS011;10207;50.942;6.900;2023-07-30T05:28:21;5.93;;;1.50;;
20095;SDS011;10207;50.942;6.900;2023-07-30T05:30:47;5.78;;;2.08;;
20095;SDS011;10207;50.942;6.900;2023-07-30T05:33:13;6.30;;;1.65;;
20095;SDS011;10207;50.942;6.900;2023-07-30T05:35:39;8.02;;;1.50;;
20095;SDS011;10207;50.942;6.900;2023-07-30T05:38:05;6.90;;;1.60;;
20095;SDS011;10207;50.942;6.900;2023-07-30T05:40:31;9.23;;;2.28;;
20095;SDS011;10207;50.942;6.900;2023-07-30T05:42:57;7.25;;;1.60;;
20095;SDS011;10207;50.942;6.900;2023-07-30T05:45:22;5.93;;;1.50;;
20095;SDS011;10207;50.942;6.900;2023-07-30T05:47:48;6.60;;;1.60;;
20095;SDS011;10207;50.942;6.900;2023-07-30T05:50:14;4.60;;;1.40;;
20095;SDS011;10207;50.942;6.900;2023-07-30T05:52:40;5.38;;;1.55;;
20095;SDS011;10207;50.942;6.900;2023-07-30T05:55:06;5.28;;;1.20;;
20095;SDS011;10207;50.942;6.900;2023-07-30T05:57:32;5.32;;;2.13;;
20095;SDS011;10207;50.942;6.900;2023-07-30T05:59:58;6.07;;;1.35;;
20095;SDS011;10207;50.942;6.900;2023-07-30T06:02:24;7.95;;;1.40;;
20095;SDS011;10207;50.942;6.900;2023-07-30T06:04:50;6.43;;;1.52;;
20095;SDS011;10207;50.942;6.900;2023-07-30T06:07:16;5.60;;;1.55;;
20095;SDS011;10207;50.942;6.900;2023-07-30T06:09:42;8.35;;;2.30;;
20095;SDS011;10207;50.942;6.900;2023-07-30T06:12:08;4.30;;;1.27;;
20095;SDS011;10207;50.942;6.900;2023-07-30T06:14:34;6.90;;;1.67;;
20095;SDS011;10207;50.942;6.900;2023-07-30T06:17:00;7.55;;;1.30;;
20095;SDS011;10207;50.942;6.900;2023-07-30T06:19:25;6.03;;;1.50;;
20095;SDS011;10207;50.942;6.900;2023-07-30T06:21:52;5.18;;;1.20;;
20095;SDS011;10207;50.942;6.900;2023-07-30T06:24:18;7.30;;;1.60;;
20095;SDS011;10207;50.942;6.900;2023-07-30T06:26:44;4.82;;;1.38;;
20095;SDS011;10207;50.942;6.900;2023-07-30T06:29:09;4.97;;;1.80;;
20095;SDS011;10207;50.942;6.900;2023-07-30T06:31:35;4.00;;;1.00;;
20095;SDS011;10207;50.942;6.900;2023-07-30T06:34:01;5.45;;;1.70;;
20095;SDS011;10207;50.942;6.900;2023-07-30T06:36:27;6.70;;;1.30;;
20095;SDS011;10207;50.942;6.900;2023-07-30T06:38:53;4.57;;;1.33;;
20095;SDS011;10207;50.942;6.900;2023-07-30T06:41:20;4.22;;;1.25;;
20095;SDS011;10207;50.942;6.900;2023-07-30T06:43:46;4.18;;;0.98;;
20095;SDS011;10207;50.942;6.900;2023-07-30T06:46:12;6.00;;;1.13;;
20095;SDS011;10207;50.942;6.900;2023-07-30T06:48:38;5.78;;;1.70;;
20095;SDS011;10207;50.942;6.900;2023-07-30T06:51:09;6.45;;;1.33;;
20095;SDS011;10207;50.942;6.900;2023-07-30T06:53:35;6.20;;;1.10;;
20095;SDS011;10207;50.942;6.900;2023-07-30T06:56:01;5.95;;;1.48;;
20095;SDS011;10207;50.942;6.900;2023-07-30T06:58:27;3.65;;;0.70;;
20095;SDS011;10207;50.942;6.900;2023-07-30T07:00:52;4.25;;;1.00;;
20095;SDS011;10207;50.942;6.900;2023-07-30T07:03:18;4.82;;;0.90;;
20095;SDS011;10207;50.942;6.900;2023-07-30T07:05:44;5.90;;;1.20;;
20095;SDS011;10207;50.942;6.900;2023-07-30T07:08:10;4.63;;;1.10;;
20095;SDS011;10207;50.942;6.900;2023-07-30T07:10:37;3.08;;;0.80;;
20095;SDS011;10207;50.942;6.900;2023-07-30T07:13:03;4.72;;;1.48;;
20095;SDS011;10207;50.942;6.900;2023-07-30T07:15:29;3.20;;;0.80;;
20095;SDS011;10207;50.942;6.900;2023-07-30T07:17:55;5.35;;;1.60;;
20095;SDS011;10207;50.942;6.900;2023-07-30T07:20:21;2.35;;;0.70;;
20095;SDS011;10207;50.942;6.900;2023-07-30T07:22:47;5.03;;;0.90;;
20095;SDS011;10207;50.942;6.900;2023-07-30T07:25:14;2.45;;;0.90;;
20095;SDS011;10207;50.942;6.900;2023-07-30T07:27:40;6.60;;;1.33;;
20095;SDS011;10207;50.942;6.900;2023-07-30T07:30:06;7.72;;;1.30;;
20095;SDS011;10207;50.942;6.900;2023-07-30T07:32:32;4.45;;;1.00;;
20095;SDS011;10207;50.942;6.900;2023-07-30T07:35:03;2.92;;;0.90;;
20095;SDS011;10207;50.942;6.900;2023-07-30T07:37:29;7.00;;;1.27;;
20095;SDS011;10207;50.942;6.900;2023-07-30T07:39:55;3.05;;;0.80;;
20095;SDS011;10207;50.942;6.900;2023-07-30T07:42:22;6.53;;;1.17;;
20095;SDS011;10207;50.942;6.900;2023-07-30T07:44:48;4.97;;;1.17;;
20095;SDS011;10207;50.942;6.900;2023-07-30T07:47:13;5.22;;;1.52;;
20095;SDS011;10207;50.942;6.900;2023-07-30T07:49:39;6.97;;;1.20;;
20095;SDS011;10207;50.942;6.900;2023-07-30T07:52:05;7.75;;;1.08;;
20095;SDS011;10207;50.942;6.900;2023-07-30T07:54:31;5.35;;;1.35;;
20095;SDS011;10207;50.942;6.900;2023-07-30T07:56:57;7.13;;;1.45;;
20095;SDS011;10207;50.942;6.900;2023-07-30T07:59:23;6.20;;;1.67;;
20095;SDS011;10207;50.942;6.900;2023-07-30T08:01:49;7.90;;;1.50;;
20095;SDS011;10207;50.942;6.900;2023-07-30T08:04:15;5.70;;;1.30;;
20095;SDS011;10207;50.942;6.900;2023-07-30T08:06:41;7.03;;;1.92;;
20095;SDS011;10207;50.942;6.900;2023-07-30T08:09:07;8.45;;;1.65;;
20095;SDS011;10207;50.942;6.900;2023-07-30T08:11:33;7.43;;;1.83;;
20095;SDS011;10207;50.942;6.900;2023-07-30T08:13:59;8.52;;;1.95;;
20095;SDS011;10207;50.942;6.900;2023-07-30T08:16:25;6.75;;;1.70;;
20095;SDS011;10207;50.942;6.900;2023-07-30T08:18:51;9.38;;;2.05;;
20095;SDS011;10207;50.942;6.900;2023-07-30T08:21:17;10.32;;;2.47;;
20095;SDS011;10207;50.942;6.900;2023-07-30T08:23:46;9.55;;;2.20;;
20095;SDS011;10207;50.942;6.900;2023-07-30T08:26:12;6.70;;;2.13;;
20095;SDS011;10207;50.942;6.900;2023-07-30T08:28:37;10.18;;;2.72;;
20095;SDS011;10207;50.942;6.900;2023-07-30T08:31:04;6.15;;;1.75;;
20095;SDS011;10207;50.942;6.900;2023-07-30T08:33:30;5.88;;;1.30;;
20095;SDS011;10207;50.942;6.900;2023-07-30T08:35:56;9.82;;;1.83;;
20095;SDS011;10207;50.942;6.900;2023-07-30T08:38:23;11.38;;;2.03;;
20095;SDS011;10207;50.942;6.900;2023-07-30T08:40:49;8.00;;;1.80;;
20095;SDS011;10207;50.942;6.900;2023-07-30T08:43:16;7.32;;;2.00;;
20095;SDS011;10207;50.942;6.900;2023-07-30T08:45:42;7.43;;;2.65;;
20095;SDS011;10207;50.942;6.900;2023-07-30T08:48:08;11.35;;;2.35;;
20095;SDS011;10207;50.942;6.900;2023-07-30T08:50:34;7.90;;;1.85;;
20095;SDS011;10207;50.942;6.900;2023-07-30T08:53:01;10.77;;;1.98;;
20095;SDS011;10207;50.942;6.900;2023-07-30T08:55:28;13.02;;;2.05;;
20095;SDS011;10207;50.942;6.900;2023-07-30T08:57:55;7.60;;;1.67;;
20095;SDS011;10207;50.942;6.900;2023-07-30T09:00:22;7.88;;;1.55;;
20095;SDS011;10207;50.942;6.900;2023-07-30T09:02:51;7.95;;;1.45;;
20095;SDS011;10207;50.942;6.900;2023-07-30T09:05:18;10.52;;;1.88;;
20095;SDS011;10207;50.942;6.900;2023-07-30T09:07:45;9.93;;;1.85;;
20095;SDS011;10207;50.942;6.900;2023-07-30T09:10:11;8.70;;;1.85;;
20095;SDS011;10207;50.942;6.900;2023-07-30T09:12:38;8.75;;;2.08;;
20095;SDS011;10207;50.942;6.900;2023-07-30T09:15:04;7.10;;;1.75;;
20095;SDS011;10207;50.942;6.900;2023-07-30T09:17:30;8.63;;;2.67;;
20095;SDS011;10207;50.942;6.900;2023-07-30T09:19:58;9.52;;;1.83;;
20095;SDS011;10207;50.942;6.900;2023-07-30T09:22:27;6.95;;;1.85;;
20095;SDS011;10207;50.942;6.900;2023-07-30T09:24:54;5.35;;;1.27;;
20095;SDS011;10207;50.942;6.900;2023-07-30T09:27:21;6.70;;;1.30;;
20095;SDS011;10207;50.942;6.900;2023-07-30T09:29:52;7.93;;;1.52;;
20095;SDS011;10207;50.942;6.900;2023-07-30T09:32:18;7.47;;;2.20;;
20095;SDS011;10207;50.942;6.900;2023-07-30T09:34:44;9.35;;;1.40;;
20095;SDS011;10207;50.942;6.900;2023-07-30T09:37:11;7.38;;;1.65;;
20095;SDS011;10207;50.942;6.900;2023-07-30T09:39:37;9.85;;;1.83;;
20095;SDS011;10207;50.942;6.900;2023-07-30T09:42:03;9.00;;;1.75;;
20095;SDS011;10207;50.942;6.900;2023-07-30T09:44:29;10.30;;;1.58;;
20095;SDS011;10207;50.942;6.900;2023-07-30T09:46:57;8.45;;;1.55;;
20095;SDS011;10207;50.942;6.900;2023-07-30T09:49:23;10.75;;;1.70;;
20095;SDS011;10207;50.942;6.900;2023-07-30T09:51:49;11.55;;;1.70;;
20095;SDS011;10207;50.942;6.900;2023-07-30T09:54:16;7.70;;;1.75;;
20095;SDS011;10207;50.942;6.900;2023-07-30T09:56:42;5.63;;;1.38;;
20095;SDS011;10207;50.942;6.900;2023-07-30T09:59:09;5.80;;;1.42;;
20095;SDS011;10207;50.942;6.900;2023-07-30T10:01:36;6.88;;;1.60;;
20095;SDS011;10207;50.942;6.900;2023-07-30T10:04:06;8.05;;;1.75;;
20095;SDS011;10207;50.942;6.900;2023-07-30T10:06:32;5.88;;;1.40;;
20095;SDS011;10207;50.942;6.900;2023-07-30T10:09:01;7.65;;;1.65;;
20095;SDS011;10207;50.942;6.900;2023-07-30T10:11:27;10.90;;;1.80;;
20095;SDS011;10207;50.942;6.900;2023-07-30T10:13:53;7.65;;;1.40;;
20095;SDS011;10207;50.942;6.900;2023-07-30T10:16:24;6.03;;;1.35;;
20095;SDS011;10207;50.942;6.900;2023-07-30T10:18:52;5.22;;;1.25;;
20095;SDS011;10207;50.942;6.900;2023-07-30T10:21:24;5.38;;;1.30;;
20095;SDS011;10207;50.942;6.900;2023-07-30T10:24:24;8.50;;;1.35;;
20095;SDS011;10207;50.942;6.900;2023-07-30T10:26:43;9.07;;;2.22;;
20095;SDS011;10207;50.942;6.900;2023-07-30T10:29:13;4.82;;;1.25;;
20095;SDS011;10207;50.942;6.900;2023-07-30T10:31:39;6.43;;;1.60;;
20095;SDS011;10207;50.942;6.900;2023-07-30T10:34:09;13.13;;;2.55;;
20095;SDS011;10207;50.942;6.900;2023-07-30T10:36:43;5.10;;;1.42;;
20095;SDS011;10207;50.942;6.900;2023-07-30T10:41:37;7.43;;;1.83;;
20095;SDS011;10207;50.942;6.900;2023-07-30T10:44:03;4.65;;;1.30;;
20095;SDS011;10207;50.942;6.900;2023-07-30T10:46:30;7.35;;;1.75;;
20095;SDS011;10207;50.942;6.900;2023-07-30T10:48:56;6.22;;;1.27;;
20095;SDS011;10207;50.942;6.900;2023-07-30T10:51:21;8.13;;;1.42;;
20095;SDS011;10207;50.942;6.900;2023-07-30T10:53:50;8.52;;;2.13;;
20095;SDS011;10207;50.942;6.900;2023-07-30T10:56:16;4.07;;;0.90;;
20095;SDS011;10207;50.942;6.900;2023-07-30T10:58:43;5.60;;;1.17;;
20095;SDS011;10207;50.942;6.900;2023-07-30T11:01:09;9.38;;;1.25;;
20095;SDS011;10207;50.942;6.900;2023-07-30T11:03:35;5.68;;;1.30;;
20095;SDS011;10207;50.942;6.900;2023-07-30T11:06:01;5.63;;;1.30;;
20095;SDS011;10207;50.942;6.900;2023-07-30T11:08:38;6.22;;;1.23;;
20095;SDS011;10207;50.942;6.900;2023-07-30T11:11:05;7.82;;;1.65;;
20095;SDS011;10207;50.942;6.900;2023-07-30T11:13:38;6.32;;;1.20;;
20095;SDS011;10207;50.942;6.900;2023-07-30T11:16:05;2.38;;;1.13;;
20095;SDS011;10207;50.942;6.900;2023-07-30T11:18:32;5.18;;;1.42;;
20095;SDS011;10207;50.942;6.900;2023-07-30T11:21:03;5.07;;;1.20;;
20095;SDS011;10207;50.942;6.900;2023-07-30T11:23:29;6.85;;;1.35;;
20095;SDS011;10207;50.942;6.900;2023-07-30T11:25:55;6.55;;;1.42;;
20095;SDS011;10207;50.942;6.900;2023-07-30T11:28:30;3.35;;;0.93;;
20095;SDS011;10207;50.942;6.900;2023-07-30T11:31:00;6.00;;;0.90;;
20095;SDS011;10207;50.942;6.900;2023-07-30T11:33:27;7.30;;;1.10;;
20095;SDS011;10207;50.942;6.900;2023-07-30T11:35:54;6.45;;;0.98;;
20095;SDS011;10207;50.942;6.900;2023-07-30T11:38:20;7.50;;;1.00;;
20095;SDS011;10207;50.942;6.900;2023-07-30T11:40:47;4.75;;;1.38;;
20095;SDS011;10207;50.942;6.900;2023-07-30T11:43:13;3.20;;;0.70;;
20095;SDS011;10207;50.942;6.900;2023-07-30T11:45:39;3.75;;;0.85;;
20095;SDS011;10207;50.942;6.900;2023-07-30T11:48:09;4.47;;;0.80;;
20095;SDS011;10207;50.942;6.900;2023-07-30T11:50:49;4.93;;;1.70;;
20095;SDS011;10207;50.942;6.900;2023-07-30T11:53:15;6.28;;;1.30;;
20095;SDS011;10207;50.942;6.900;2023-07-30T11:55:42;4.72;;;1.27;;
20095;SDS011;10207;50.942;6.900;2023-07-30T11:58:08;2.30;;;0.80;;
20095;SDS011;10207;50.942;6.900;2023-07-30T12:00:41;5.25;;;0.95;;
20095;SDS011;10207;50.942;6.900;2023-07-30T12:03:09;2.60;;;0.88;;
20095;SDS011;10207;50.942;6.900;2023-07-30T12:05:37;6.60;;;1.10;;
20095;SDS011;10207;50.942;6.900;2023-07-30T12:08:04;4.82;;;0.80;;
20095;SDS011;10207;50.942;6.900;2023-07-30T12:10:42;6.97;;;1.40;;
20095;SDS011;10207;50.942;6.900;2023-07-30T12:13:16;8.40;;;1.17;;
20095;SDS011;10207;50.942;6.900;2023-07-30T12:15:51;9.45;;;1.67;;
20095;SDS011;10207;50.942;6.900;2023-07-30T12:18:21;4.10;;;0.95;;
20095;SDS011;10207;50.942;6.900;2023-07-30T12:20:47;4.88;;;0.93;;
20095;SDS011;10207;50.942;6.900;2023-07-30T12:23:13;8.93;;;2.00;;
20095;SDS011;10207;50.942;6.900;2023-07-30T12:25:40;5.40;;;1.05;;
20095;SDS011;10207;50.942;6.900;2023-07-30T12:28:05;5.18;;;1.10;;
20095;SDS011;10207;50.942;6.900;2023-07-30T12:30:32;5.97;;;0.88;;
20095;SDS011;10207;50.942;6.900;2023-07-30T12:32:58;10.45;;;1.30;;
20095;SDS011;10207;50.942;6.900;2023-07-30T12:35:24;4.05;;;0.93;;
20095;SDS011;10207;50.942;6.900;2023-07-30T12:37:50;5.53;;;1.27;;
20095;SDS011;10207;50.942;6.900;2023-07-30T12:40:16;7.63;;;1.75;;
20095;SDS011;10207;50.942;6.900;2023-07-30T12:42:42;5.78;;;1.17;;
20095;SDS011;10207;50.942;6.900;2023-07-30T12:45:08;7.43;;;1.55;;
20095;SDS011;10207;50.942;6.900;2023-07-30T12:47:34;8.07;;;1.52;;
20095;SDS011;10207;50.942;6.900;2023-07-30T12:50:02;5.07;;;1.00;;
20095;SDS011;10207;50.942;6.900;2023-07-30T12:52:29;5.90;;;0.80;;
20095;SDS011;10207;50.942;6.900;2023-07-30T12:54:55;6.00;;;1.20;;
20095;SDS011;10207;50.942;6.900;2023-07-30T12:57:21;6.50;;;1.20;;
20095;SDS011;10207;50.942;6.900;2023-07-30T12:59:47;5.45;;;1.30;;
20095;SDS011;10207;50.942;6.900;2023-07-30T13:02:12;4.55;;;1.30;;
20095;SDS011;10207;50.942;6.900;2023-07-30T13:04:38;5.90;;;1.42;;
20095;SDS011;10207;50.942;6.900;2023-07-30T13:07:04;7.60;;;1.48;;
20095;SDS011;10207;50.942;6.900;2023-07-30T13:09:30;8.68;;;1.73;;
20095;SDS011;10207;50.942;6.900;2023-07-30T13:11:56;5.80;;;0.90;;
20095;SDS011;10207;50.942;6.900;2023-07-30T13:14:22;5.43;;;1.55;;
20095;SDS011;10207;50.942;6.900;2023-07-30T13:16:48;6.00;;;1.48;;
20095;SDS011;10207;50.942;6.900;2023-07-30T13:19:14;4.07;;;1.20;;
20095;SDS011;10207;50.942;6.900;2023-07-30T13:21:40;7.00;;;1.20;;
20095;SDS011;10207;50.942;6.900;2023-07-30T13:24:06;4.80;;;1.13;;
20095;SDS011;10207;50.942;6.900;2023-07-30T13:26:32;14.70;;;2.22;;
20095;SDS011;10207;50.942;6.900;2023-07-30T13:28:58;7.90;;;1.10;;
20095;SDS011;10207;50.942;6.900;2023-07-30T13:31:24;10.27;;;2.25;;
20095;SDS011;10207;50.942;6.900;2023-07-30T13:33:50;7.90;;;1.35;;
20095;SDS011;10207;50.942;6.900;2023-07-30T13:36:16;5.80;;;1.85;;
20095;SDS011;10207;50.942;6.900;2023-07-30T13:38:43;5.32;;;1.15;;
20095;SDS011;10207;50.942;6.900;2023-07-30T13:41:09;2.53;;;0.88;;
20095;SDS011;10207;50.942;6.900;2023-07-30T13:43:35;6.38;;;0.95;;
20095;SDS011;10207;50.942;6.900;2023-07-30T13:46:01;7.13;;;1.17;;
20095;SDS011;10207;50.942;6.900;2023-07-30T13:48:27;5.20;;;1.20;;
20095;SDS011;10207;50.942;6.900;2023-07-30T13:50:53;7.75;;;1.35;;
20095;SDS011;10207;50.942;6.900;2023-07-30T13:53:19;3.92;;;1.00;;
20095;SDS011;10207;50.942;6.900;2023-07-30T13:55:45;4.85;;;1.00;;
20095;SDS011;10207;50.942;6.900;2023-07-30T13:58:11;4.25;;;1.35;;
20095;SDS011;10207;50.942;6.900;2023-07-30T14:00:41;5.35;;;1.48;;
20095;SDS011;10207;50.942;6.900;2023-07-30T14:03:10;5.53;;;1.38;;
20095;SDS011;10207;50.942;6.900;2023-07-30T14:05:38;4.55;;;1.00;;
20095;SDS011;10207;50.942;6.900;2023-07-30T14:08:04;5.53;;;1.05;;
20095;SDS011;10207;50.942;6.900;2023-07-30T14:10:30;5.07;;;1.00;;
20095;SDS011;10207;50.942;6.900;2023-07-30T14:12:56;4.18;;;1.13;;
20095;SDS011;10207;50.942;6.900;2023-07-30T14:15:21;6.50;;;1.02;;
20095;SDS011;10207;50.942;6.900;2023-07-30T14:17:48;5.68;;;0.90;;
20095;SDS011;10207;50.942;6.900;2023-07-30T14:20:14;6.68;;;1.10;;
20095;SDS011;10207;50.942;6.900;2023-07-30T14:22:40;3.90;;;0.95;;
20095;SDS011;10207;50.942;6.900;2023-07-30T14:25:06;5.45;;;1.25;;
20095;SDS011;10207;50.942;6.900;2023-07-30T14:27:31;7.30;;;1.00;;
20095;SDS011;10207;50.942;6.900;2023-07-30T14:29:57;4.07;;;1.05;;
20095;SDS011;10207;50.942;6.900;2023-07-30T14:32:23;2.95;;;0.82;;
20095;SDS011;10207;50.942;6.900;2023-07-30T14:34:50;3.92;;;1.13;;
20095;SDS011;10207;50.942;6.900;2023-07-30T14:37:16;3.95;;;0.90;;
20095;SDS011;10207;50.942;6.900;2023-07-30T14:39:41;7.10;;;1.15;;
20095;SDS011;10207;50.942;6.900;2023-07-30T14:42:08;3.30;;;0.88;;
20095;SDS011;10207;50.942;6.900;2023-07-30T14:44:34;5.68;;;1.00;;